Lagunitas, California
Current Conditions -  °F | °C
As of 4:15 PM on Friday 21 Nov 2014 (Local Time) from KO69 Reporting Station
Overcast Overcast  
Wind Chill: 57°   Ceiling: 5000
Heat Index: 57°   Visibility: 10mi
Dew Point: 52°   Wind: 0mph
Humidity: 82%   Direction: NA
Pressure: 30.12"   Gusts: NA
Location:  38.01°N, 122.7°W
Report Text: KO69 220015Z AUTO 00000KT 10SM OVC050 14/11 A3012 RMK AO1
Loading
Personal Weather Stations






























Interactive Weather Map New forecast layout! Learn more

10-Day Weather Forecast

Advertisements
Track Severe Weather on mobile